sensor_id;sensor_type;location;lat;lon;timestamp;P1;durP1;ratioP1;P2;durP2;ratioP2
10162;SDS011;5123;52.556;13.384;2022-12-16T00:00:42;50.27;;;30.00;;
10162;SDS011;5123;52.556;13.384;2022-12-16T00:03:18;48.23;;;29.93;;
10162;SDS011;5123;52.556;13.384;2022-12-16T00:05:54;53.30;;;31.23;;
10162;SDS011;5123;52.556;13.384;2022-12-16T00:08:32;50.27;;;30.10;;
10162;SDS011;5123;52.556;13.384;2022-12-16T00:11:06;53.80;;;31.53;;
10162;SDS011;5123;52.556;13.384;2022-12-16T00:13:40;55.63;;;30.47;;
10162;SDS011;5123;52.556;13.384;2022-12-16T00:16:14;54.40;;;31.83;;
10162;SDS011;5123;52.556;13.384;2022-12-16T00:18:51;57.47;;;30.97;;
10162;SDS011;5123;52.556;13.384;2022-12-16T00:21:25;53.90;;;31.17;;
10162;SDS011;5123;52.556;13.384;2022-12-16T00:24:00;50.67;;;31.23;;
10162;SDS011;5123;52.556;13.384;2022-12-16T00:26:33;51.90;;;28.47;;
10162;SDS011;5123;52.556;13.384;2022-12-16T00:29:07;50.73;;;30.87;;
10162;SDS011;5123;52.556;13.384;2022-12-16T00:31:42;49.27;;;29.50;;
10162;SDS011;5123;52.556;13.384;2022-12-16T00:34:21;50.97;;;29.80;;
10162;SDS011;5123;52.556;13.384;2022-12-16T00:36:55;54.57;;;31.00;;
10162;SDS011;5123;52.556;13.384;2022-12-16T00:39:28;51.40;;;30.50;;
10162;SDS011;5123;52.556;13.384;2022-12-16T00:42:02;55.10;;;29.43;;
10162;SDS011;5123;52.556;13.384;2022-12-16T00:44:36;54.33;;;30.37;;
10162;SDS011;5123;52.556;13.384;2022-12-16T00:47:10;58.27;;;30.37;;
10162;SDS011;5123;52.556;13.384;2022-12-16T00:49:46;54.80;;;30.47;;
10162;SDS011;5123;52.556;13.384;2022-12-16T00:52:20;51.30;;;29.60;;
10162;SDS011;5123;52.556;13.384;2022-12-16T00:54:54;51.63;;;29.10;;
10162;SDS011;5123;52.556;13.384;2022-12-16T00:57:28;53.30;;;29.27;;
10162;SDS011;5123;52.556;13.384;2022-12-16T01:00:04;45.83;;;28.63;;
10162;SDS011;5123;52.556;13.384;2022-12-16T01:02:40;49.13;;;29.30;;
10162;SDS011;5123;52.556;13.384;2022-12-16T01:05:16;48.33;;;28.27;;
10162;SDS011;5123;52.556;13.384;2022-12-16T01:07:57;45.53;;;27.90;;
10162;SDS011;5123;52.556;13.384;2022-12-16T01:10:35;42.47;;;25.53;;
10162;SDS011;5123;52.556;13.384;2022-12-16T01:13:09;46.37;;;27.67;;
10162;SDS011;5123;52.556;13.384;2022-12-16T01:15:43;47.93;;;27.47;;
10162;SDS011;5123;52.556;13.384;2022-12-16T01:18:16;44.27;;;26.73;;
10162;SDS011;5123;52.556;13.384;2022-12-16T01:20:52;42.53;;;26.53;;
10162;SDS011;5123;52.556;13.384;2022-12-16T01:23:26;44.37;;;26.63;;
10162;SDS011;5123;52.556;13.384;2022-12-16T01:26:01;42.47;;;26.60;;
10162;SDS011;5123;52.556;13.384;2022-12-16T01:28:34;41.60;;;25.83;;
10162;SDS011;5123;52.556;13.384;2022-12-16T01:31:08;40.70;;;24.63;;
10162;SDS011;5123;52.556;13.384;2022-12-16T01:33:43;43.93;;;24.80;;
10162;SDS011;5123;52.556;13.384;2022-12-16T01:36:18;42.17;;;25.43;;
10162;SDS011;5123;52.556;13.384;2022-12-16T01:38:52;39.77;;;24.20;;
10162;SDS011;5123;52.556;13.384;2022-12-16T01:41:25;42.80;;;27.87;;
10162;SDS011;5123;52.556;13.384;2022-12-16T01:44:12;41.47;;;25.30;;
10162;SDS011;5123;52.556;13.384;2022-12-16T01:46:48;45.13;;;25.87;;
10162;SDS011;5123;52.556;13.384;2022-12-16T01:49:25;43.90;;;26.50;;
10162;SDS011;5123;52.556;13.384;2022-12-16T01:52:00;40.47;;;26.07;;
10162;SDS011;5123;52.556;13.384;2022-12-16T01:54:36;45.60;;;27.17;;
10162;SDS011;5123;52.556;13.384;2022-12-16T01:57:12;43.47;;;25.50;;
10162;SDS011;5123;52.556;13.384;2022-12-16T01:59:48;43.27;;;25.30;;
10162;SDS011;5123;52.556;13.384;2022-12-16T02:02:24;43.37;;;25.90;;
10162;SDS011;5123;52.556;13.384;2022-12-16T02:04:58;45.47;;;27.20;;
10162;SDS011;5123;52.556;13.384;2022-12-16T02:07:52;47.27;;;26.13;;
10162;SDS011;5123;52.556;13.384;2022-12-16T02:10:31;39.40;;;25.63;;
10162;SDS011;5123;52.556;13.384;2022-12-16T02:13:07;41.37;;;24.93;;
10162;SDS011;5123;52.556;13.384;2022-12-16T02:15:45;41.23;;;26.10;;
10162;SDS011;5123;52.556;13.384;2022-12-16T02:18:24;40.50;;;24.20;;
10162;SDS011;5123;52.556;13.384;2022-12-16T02:21:10;39.93;;;25.63;;
10162;SDS011;5123;52.556;13.384;2022-12-16T02:24:01;38.07;;;25.00;;
10162;SDS011;5123;52.556;13.384;2022-12-16T02:26:52;42.03;;;24.90;;
10162;SDS011;5123;52.556;13.384;2022-12-16T02:29:36;41.40;;;25.00;;
10162;SDS011;5123;52.556;13.384;2022-12-16T02:32:13;38.30;;;23.37;;
10162;SDS011;5123;52.556;13.384;2022-12-16T02:34:52;44.77;;;25.20;;
10162;SDS011;5123;52.556;13.384;2022-12-16T02:37:30;42.67;;;24.17;;
10162;SDS011;5123;52.556;13.384;2022-12-16T02:40:10;41.03;;;25.20;;
10162;SDS011;5123;52.556;13.384;2022-12-16T02:42:49;39.43;;;23.80;;
10162;SDS011;5123;52.556;13.384;2022-12-16T02:45:28;40.83;;;24.43;;
10162;SDS011;5123;52.556;13.384;2022-12-16T02:48:08;40.40;;;24.70;;
10162;SDS011;5123;52.556;13.384;2022-12-16T02:50:50;37.07;;;25.10;;
10162;SDS011;5123;52.556;13.384;2022-12-16T02:53:28;44.17;;;25.83;;
10162;SDS011;5123;52.556;13.384;2022-12-16T02:56:08;46.53;;;26.23;;
10162;SDS011;5123;52.556;13.384;2022-12-16T02:58:48;40.20;;;24.73;;
10162;SDS011;5123;52.556;13.384;2022-12-16T03:01:29;40.93;;;24.67;;
10162;SDS011;5123;52.556;13.384;2022-12-16T03:04:08;42.07;;;25.57;;
10162;SDS011;5123;52.556;13.384;2022-12-16T03:06:43;40.43;;;24.70;;
10162;SDS011;5123;52.556;13.384;2022-12-16T03:09:21;37.83;;;23.73;;
10162;SDS011;5123;52.556;13.384;2022-12-16T03:11:54;41.80;;;25.50;;
10162;SDS011;5123;52.556;13.384;2022-12-16T03:14:31;40.97;;;25.93;;
10162;SDS011;5123;52.556;13.384;2022-12-16T03:17:05;42.03;;;25.70;;
10162;SDS011;5123;52.556;13.384;2022-12-16T03:19:42;37.23;;;24.50;;
10162;SDS011;5123;52.556;13.384;2022-12-16T03:22:21;39.97;;;24.47;;
10162;SDS011;5123;52.556;13.384;2022-12-16T03:24:56;42.63;;;26.13;;
10162;SDS011;5123;52.556;13.384;2022-12-16T03:27:33;35.97;;;23.97;;
10162;SDS011;5123;52.556;13.384;2022-12-16T03:30:08;40.83;;;25.00;;
10162;SDS011;5123;52.556;13.384;2022-12-16T03:32:45;40.10;;;25.33;;
10162;SDS011;5123;52.556;13.384;2022-12-16T03:35:24;43.20;;;25.00;;
10162;SDS011;5123;52.556;13.384;2022-12-16T03:37:59;42.77;;;24.00;;
10162;SDS011;5123;52.556;13.384;2022-12-16T03:40:34;38.60;;;24.57;;
10162;SDS011;5123;52.556;13.384;2022-12-16T03:43:09;39.47;;;23.33;;
10162;SDS011;5123;52.556;13.384;2022-12-16T03:45:43;44.70;;;24.30;;
10162;SDS011;5123;52.556;13.384;2022-12-16T03:48:21;41.13;;;24.03;;
10162;SDS011;5123;52.556;13.384;2022-12-16T03:51:01;41.07;;;24.93;;
10162;SDS011;5123;52.556;13.384;2022-12-16T03:53:35;41.43;;;24.83;;
10162;SDS011;5123;52.556;13.384;2022-12-16T03:56:08;39.97;;;23.80;;
10162;SDS011;5123;52.556;13.384;2022-12-16T03:58:42;45.13;;;25.20;;
10162;SDS011;5123;52.556;13.384;2022-12-16T04:01:21;33.43;;;22.73;;
10162;SDS011;5123;52.556;13.384;2022-12-16T04:03:54;39.67;;;24.57;;
10162;SDS011;5123;52.556;13.384;2022-12-16T04:09:08;44.17;;;25.57;;
10162;SDS011;5123;52.556;13.384;2022-12-16T04:11:41;42.30;;;24.50;;
10162;SDS011;5123;52.556;13.384;2022-12-16T04:14:33;40.23;;;24.10;;
10162;SDS011;5123;52.556;13.384;2022-12-16T04:17:24;39.37;;;24.27;;
10162;SDS011;5123;52.556;13.384;2022-12-16T04:20:17;38.37;;;23.13;;
10162;SDS011;5123;52.556;13.384;2022-12-16T04:23:09;43.03;;;24.80;;
10162;SDS011;5123;52.556;13.384;2022-12-16T04:26:03;37.97;;;23.77;;
10162;SDS011;5123;52.556;13.384;2022-12-16T04:28:37;42.40;;;25.20;;
10162;SDS011;5123;52.556;13.384;2022-12-16T04:31:10;35.63;;;21.57;;
10162;SDS011;5123;52.556;13.384;2022-12-16T04:33:44;43.93;;;24.33;;
10162;SDS011;5123;52.556;13.384;2022-12-16T04:36:34;41.33;;;24.13;;
10162;SDS011;5123;52.556;13.384;2022-12-16T04:39:26;36.87;;;23.53;;
10162;SDS011;5123;52.556;13.384;2022-12-16T04:42:19;38.97;;;22.87;;
10162;SDS011;5123;52.556;13.384;2022-12-16T04:45:10;39.33;;;24.13;;
10162;SDS011;5123;52.556;13.384;2022-12-16T04:48:07;43.23;;;24.37;;
10162;SDS011;5123;52.556;13.384;2022-12-16T04:51:08;40.97;;;23.40;;
10162;SDS011;5123;52.556;13.384;2022-12-16T04:54:00;42.33;;;23.03;;
10162;SDS011;5123;52.556;13.384;2022-12-16T04:56:49;42.83;;;24.20;;
10162;SDS011;5123;52.556;13.384;2022-12-16T04:59:41;41.97;;;23.17;;
10162;SDS011;5123;52.556;13.384;2022-12-16T05:02:34;39.77;;;22.97;;
10162;SDS011;5123;52.556;13.384;2022-12-16T05:05:27;43.80;;;24.30;;
10162;SDS011;5123;52.556;13.384;2022-12-16T05:08:17;42.23;;;23.70;;
10162;SDS011;5123;52.556;13.384;2022-12-16T05:11:07;38.43;;;23.10;;
10162;SDS011;5123;52.556;13.384;2022-12-16T05:13:58;36.33;;;23.50;;
10162;SDS011;5123;52.556;13.384;2022-12-16T05:16:51;42.17;;;24.07;;
10162;SDS011;5123;52.556;13.384;2022-12-16T05:19:48;40.70;;;24.03;;
10162;SDS011;5123;52.556;13.384;2022-12-16T05:22:40;32.57;;;21.77;;
10162;SDS011;5123;52.556;13.384;2022-12-16T05:25:31;42.67;;;26.00;;
10162;SDS011;5123;52.556;13.384;2022-12-16T05:28:22;37.00;;;23.17;;
10162;SDS011;5123;52.556;13.384;2022-12-16T05:31:12;39.13;;;23.60;;
10162;SDS011;5123;52.556;13.384;2022-12-16T05:34:04;41.47;;;23.17;;
10162;SDS011;5123;52.556;13.384;2022-12-16T05:37:10;37.73;;;24.03;;
10162;SDS011;5123;52.556;13.384;2022-12-16T05:40:00;36.70;;;21.83;;
10162;SDS011;5123;52.556;13.384;2022-12-16T05:43:05;39.70;;;23.77;;
10162;SDS011;5123;52.556;13.384;2022-12-16T05:45:55;40.17;;;23.93;;
10162;SDS011;5123;52.556;13.384;2022-12-16T05:48:46;37.87;;;22.13;;
10162;SDS011;5123;52.556;13.384;2022-12-16T05:51:37;37.93;;;23.50;;
10162;SDS011;5123;52.556;13.384;2022-12-16T05:54:30;38.50;;;23.00;;
10162;SDS011;5123;52.556;13.384;2022-12-16T05:57:20;36.73;;;23.33;;
10162;SDS011;5123;52.556;13.384;2022-12-16T06:00:11;46.83;;;25.93;;
10162;SDS011;5123;52.556;13.384;2022-12-16T06:03:04;35.30;;;22.90;;
10162;SDS011;5123;52.556;13.384;2022-12-16T06:05:55;35.57;;;22.00;;
10162;SDS011;5123;52.556;13.384;2022-12-16T06:08:55;43.80;;;24.10;;
10162;SDS011;5123;52.556;13.384;2022-12-16T06:11:46;39.57;;;23.23;;
10162;SDS011;5123;52.556;13.384;2022-12-16T06:14:36;37.87;;;23.77;;
10162;SDS011;5123;52.556;13.384;2022-12-16T06:17:26;44.07;;;23.90;;
10162;SDS011;5123;52.556;13.384;2022-12-16T06:20:16;41.27;;;24.93;;
10162;SDS011;5123;52.556;13.384;2022-12-16T06:23:07;39.23;;;24.43;;
10162;SDS011;5123;52.556;13.384;2022-12-16T06:26:00;42.07;;;24.20;;
10162;SDS011;5123;52.556;13.384;2022-12-16T06:28:50;42.30;;;24.50;;
10162;SDS011;5123;52.556;13.384;2022-12-16T06:31:41;41.43;;;24.97;;
10162;SDS011;5123;52.556;13.384;2022-12-16T06:34:36;47.33;;;25.70;;
10162;SDS011;5123;52.556;13.384;2022-12-16T06:37:27;41.33;;;23.67;;
10162;SDS011;5123;52.556;13.384;2022-12-16T06:40:18;44.17;;;25.70;;
10162;SDS011;5123;52.556;13.384;2022-12-16T06:43:16;44.23;;;24.87;;
10162;SDS011;5123;52.556;13.384;2022-12-16T06:46:08;43.00;;;25.73;;
10162;SDS011;5123;52.556;13.384;2022-12-16T06:48:59;47.27;;;25.87;;
10162;SDS011;5123;52.556;13.384;2022-12-16T06:51:50;48.63;;;26.57;;
10162;SDS011;5123;52.556;13.384;2022-12-16T06:54:40;44.73;;;24.50;;
10162;SDS011;5123;52.556;13.384;2022-12-16T06:57:31;36.60;;;22.17;;
10162;SDS011;5123;52.556;13.384;2022-12-16T07:00:23;38.80;;;22.47;;
10162;SDS011;5123;52.556;13.384;2022-12-16T07:03:25;38.27;;;23.83;;
10162;SDS011;5123;52.556;13.384;2022-12-16T07:06:17;41.67;;;24.57;;
10162;SDS011;5123;52.556;13.384;2022-12-16T07:09:08;46.20;;;25.67;;
10162;SDS011;5123;52.556;13.384;2022-12-16T07:11:59;49.97;;;27.80;;
10162;SDS011;5123;52.556;13.384;2022-12-16T07:14:49;43.43;;;25.47;;
10162;SDS011;5123;52.556;13.384;2022-12-16T07:17:42;42.83;;;25.77;;
10162;SDS011;5123;52.556;13.384;2022-12-16T07:20:34;34.23;;;23.33;;
10162;SDS011;5123;52.556;13.384;2022-12-16T07:23:25;37.50;;;23.40;;
10162;SDS011;5123;52.556;13.384;2022-12-16T07:26:17;39.93;;;23.83;;
10162;SDS011;5123;52.556;13.384;2022-12-16T07:29:08;42.13;;;25.27;;
10162;SDS011;5123;52.556;13.384;2022-12-16T07:31:58;41.70;;;24.70;;
10162;SDS011;5123;52.556;13.384;2022-12-16T07:34:51;44.07;;;25.17;;
10162;SDS011;5123;52.556;13.384;2022-12-16T07:37:41;42.37;;;25.17;;
10162;SDS011;5123;52.556;13.384;2022-12-16T07:40:35;40.53;;;23.87;;
10162;SDS011;5123;52.556;13.384;2022-12-16T07:43:25;36.87;;;23.70;;
10162;SDS011;5123;52.556;13.384;2022-12-16T07:46:16;39.93;;;24.50;;
10162;SDS011;5123;52.556;13.384;2022-12-16T07:49:07;41.80;;;23.57;;
10162;SDS011;5123;52.556;13.384;2022-12-16T07:52:02;41.67;;;24.23;;
10162;SDS011;5123;52.556;13.384;2022-12-16T07:54:53;47.60;;;24.67;;
10162;SDS011;5123;52.556;13.384;2022-12-16T07:57:47;44.20;;;26.23;;
10162;SDS011;5123;52.556;13.384;2022-12-16T08:00:40;44.47;;;25.73;;
10162;SDS011;5123;52.556;13.384;2022-12-16T08:03:38;41.60;;;24.67;;
10162;SDS011;5123;52.556;13.384;2022-12-16T08:06:28;41.90;;;25.33;;
10162;SDS011;5123;52.556;13.384;2022-12-16T08:09:20;41.30;;;24.13;;
10162;SDS011;5123;52.556;13.384;2022-12-16T08:12:10;44.37;;;25.03;;
10162;SDS011;5123;52.556;13.384;2022-12-16T08:15:01;37.20;;;24.27;;
10162;SDS011;5123;52.556;13.384;2022-12-16T08:17:52;46.37;;;25.40;;
10162;SDS011;5123;52.556;13.384;2022-12-16T08:20:43;43.90;;;23.93;;
10162;SDS011;5123;52.556;13.384;2022-12-16T08:23:34;44.73;;;23.60;;
10162;SDS011;5123;52.556;13.384;2022-12-16T08:26:28;45.87;;;26.87;;
10162;SDS011;5123;52.556;13.384;2022-12-16T08:29:23;46.83;;;25.20;;
10162;SDS011;5123;52.556;13.384;2022-12-16T08:32:15;43.93;;;25.13;;
10162;SDS011;5123;52.556;13.384;2022-12-16T08:35:07;46.23;;;26.40;;
10162;SDS011;5123;52.556;13.384;2022-12-16T08:38:00;41.83;;;23.63;;
10162;SDS011;5123;52.556;13.384;2022-12-16T08:40:53;45.07;;;25.10;;
10162;SDS011;5123;52.556;13.384;2022-12-16T08:43:52;41.17;;;24.53;;
10162;SDS011;5123;52.556;13.384;2022-12-16T08:46:44;40.17;;;24.93;;
10162;SDS011;5123;52.556;13.384;2022-12-16T08:49:39;42.83;;;24.80;;
10162;SDS011;5123;52.556;13.384;2022-12-16T08:52:33;39.80;;;24.50;;
10162;SDS011;5123;52.556;13.384;2022-12-16T08:55:27;55.30;;;27.47;;
10162;SDS011;5123;52.556;13.384;2022-12-16T08:58:18;43.03;;;27.40;;
10162;SDS011;5123;52.556;13.384;2022-12-16T09:01:12;47.90;;;28.47;;
10162;SDS011;5123;52.556;13.384;2022-12-16T09:04:04;49.27;;;26.47;;
10162;SDS011;5123;52.556;13.384;2022-12-16T09:06:56;43.50;;;25.87;;
10162;SDS011;5123;52.556;13.384;2022-12-16T09:09:47;42.20;;;27.10;;
10162;SDS011;5123;52.556;13.384;2022-12-16T09:12:43;44.90;;;26.80;;
10162;SDS011;5123;52.556;13.384;2022-12-16T09:15:34;43.07;;;26.43;;
10162;SDS011;5123;52.556;13.384;2022-12-16T09:18:27;41.50;;;26.63;;
10162;SDS011;5123;52.556;13.384;2022-12-16T09:21:18;42.80;;;26.50;;
10162;SDS011;5123;52.556;13.384;2022-12-16T09:24:09;45.63;;;26.33;;
10162;SDS011;5123;52.556;13.384;2022-12-16T09:27:01;42.90;;;26.00;;
10162;SDS011;5123;52.556;13.384;2022-12-16T09:29:52;44.23;;;25.33;;
10162;SDS011;5123;52.556;13.384;2022-12-16T09:32:42;38.17;;;24.83;;
10162;SDS011;5123;52.556;13.384;2022-12-16T09:35:36;41.77;;;26.23;;
10162;SDS011;5123;52.556;13.384;2022-12-16T09:38:26;45.30;;;26.53;;
10162;SDS011;5123;52.556;13.384;2022-12-16T09:41:20;42.10;;;25.33;;
10162;SDS011;5123;52.556;13.384;2022-12-16T09:44:18;40.70;;;25.20;;
10162;SDS011;5123;52.556;13.384;2022-12-16T09:47:16;37.03;;;24.67;;
10162;SDS011;5123;52.556;13.384;2022-12-16T09:50:12;52.50;;;26.00;;
10162;SDS011;5123;52.556;13.384;2022-12-16T09:53:11;44.27;;;26.83;;
10162;SDS011;5123;52.556;13.384;2022-12-16T09:56:04;46.17;;;26.20;;
10162;SDS011;5123;52.556;13.384;2022-12-16T09:58:57;42.70;;;25.83;;
10162;SDS011;5123;52.556;13.384;2022-12-16T10:01:48;43.63;;;26.30;;
10162;SDS011;5123;52.556;13.384;2022-12-16T10:04:39;47.57;;;29.10;;
10162;SDS011;5123;52.556;13.384;2022-12-16T10:07:30;45.20;;;27.33;;
10162;SDS011;5123;52.556;13.384;2022-12-16T10:10:28;42.20;;;27.73;;
10162;SDS011;5123;52.556;13.384;2022-12-16T10:13:24;45.77;;;26.43;;
10162;SDS011;5123;52.556;13.384;2022-12-16T10:16:20;43.23;;;26.97;;
10162;SDS011;5123;52.556;13.384;2022-12-16T10:19:14;44.93;;;26.70;;
10162;SDS011;5123;52.556;13.384;2022-12-16T10:22:22;43.77;;;27.33;;
10162;SDS011;5123;52.556;13.384;2022-12-16T10:25:18;44.97;;;27.77;;
10162;SDS011;5123;52.556;13.384;2022-12-16T10:28:14;41.60;;;27.27;;
10162;SDS011;5123;52.556;13.384;2022-12-16T10:31:14;50.47;;;28.60;;
10162;SDS011;5123;52.556;13.384;2022-12-16T10:34:08;44.57;;;27.13;;
10162;SDS011;5123;52.556;13.384;2022-12-16T10:37:00;46.13;;;28.23;;
10162;SDS011;5123;52.556;13.384;2022-12-16T10:39:53;44.20;;;28.23;;
10162;SDS011;5123;52.556;13.384;2022-12-16T10:42:46;45.07;;;27.90;;
10162;SDS011;5123;52.556;13.384;2022-12-16T10:45:39;38.77;;;24.50;;
10162;SDS011;5123;52.556;13.384;2022-12-16T10:48:31;44.43;;;27.33;;
10162;SDS011;5123;52.556;13.384;2022-12-16T10:51:29;46.90;;;30.23;;
10162;SDS011;5123;52.556;13.384;2022-12-16T10:54:23;58.70;;;36.17;;
10162;SDS011;5123;52.556;13.384;2022-12-16T10:57:18;28.80;;;19.80;;
10162;SDS011;5123;52.556;13.384;2022-12-16T11:00:12;42.40;;;28.03;;
10162;SDS011;5123;52.556;13.384;2022-12-16T11:03:18;44.97;;;27.93;;
10162;SDS011;5123;52.556;13.384;2022-12-16T11:06:10;42.00;;;26.97;;
10162;SDS011;5123;52.556;13.384;2022-12-16T11:09:23;43.80;;;26.87;;
10162;SDS011;5123;52.556;13.384;2022-12-16T11:12:22;43.53;;;26.87;;
10162;SDS011;5123;52.556;13.384;2022-12-16T11:15:20;52.27;;;32.03;;
10162;SDS011;5123;52.556;13.384;2022-12-16T11:18:13;49.30;;;29.93;;
10162;SDS011;5123;52.556;13.384;2022-12-16T11:21:16;48.40;;;29.77;;
10162;SDS011;5123;52.556;13.384;2022-12-16T11:24:13;39.67;;;25.03;;
10162;SDS011;5123;52.556;13.384;2022-12-16T11:27:05;42.77;;;28.53;;
10162;SDS011;5123;52.556;13.384;2022-12-16T11:29:56;40.97;;;27.33;;
10162;SDS011;5123;52.556;13.384;2022-12-16T11:32:47;47.93;;;28.33;;
10162;SDS011;5123;52.556;13.384;2022-12-16T11:35:39;45.53;;;26.37;;
10162;SDS011;5123;52.556;13.384;2022-12-16T11:38:35;47.70;;;28.53;;
10162;SDS011;5123;52.556;13.384;2022-12-16T11:41:28;48.47;;;29.17;;
10162;SDS011;5123;52.556;13.384;2022-12-16T11:44:21;52.33;;;29.37;;
10162;SDS011;5123;52.556;13.384;2022-12-16T11:47:15;40.83;;;25.47;;
10162;SDS011;5123;52.556;13.384;2022-12-16T11:50:08;43.50;;;28.90;;
10162;SDS011;5123;52.556;13.384;2022-12-16T11:53:01;42.53;;;27.27;;
10162;SDS011;5123;52.556;13.384;2022-12-16T11:55:53;46.63;;;28.77;;
10162;SDS011;5123;52.556;13.384;2022-12-16T11:58:47;40.03;;;27.37;;
10162;SDS011;5123;52.556;13.384;2022-12-16T12:01:41;38.47;;;26.60;;
10162;SDS011;5123;52.556;13.384;2022-12-16T12:04:35;49.70;;;27.87;;
10162;SDS011;5123;52.556;13.384;2022-12-16T12:07:28;39.83;;;27.50;;
10162;SDS011;5123;52.556;13.384;2022-12-16T12:13:48;45.70;;;28.03;;
10162;SDS011;5123;52.556;13.384;2022-12-16T12:16:46;44.37;;;28.33;;
10162;SDS011;5123;52.556;13.384;2022-12-16T12:19:43;42.90;;;24.63;;
10162;SDS011;5123;52.556;13.384;2022-12-16T12:22:36;44.87;;;27.83;;
10162;SDS011;5123;52.556;13.384;2022-12-16T12:25:29;51.43;;;28.93;;
10162;SDS011;5123;52.556;13.384;2022-12-16T12:28:29;48.43;;;28.03;;
10162;SDS011;5123;52.556;13.384;2022-12-16T12:31:27;41.63;;;26.77;;
10162;SDS011;5123;52.556;13.384;2022-12-16T12:34:21;31.83;;;19.47;;
10162;SDS011;5123;52.556;13.384;2022-12-16T12:37:16;38.87;;;23.40;;
10162;SDS011;5123;52.556;13.384;2022-12-16T12:40:15;43.47;;;29.70;;
10162;SDS011;5123;52.556;13.384;2022-12-16T12:43:26;42.80;;;27.17;;
10162;SDS011;5123;52.556;13.384;2022-12-16T12:46:20;42.70;;;28.50;;
10162;SDS011;5123;52.556;13.384;2022-12-16T12:49:15;42.37;;;26.73;;
10162;SDS011;5123;52.556;13.384;2022-12-16T12:52:11;40.10;;;26.90;;
10162;SDS011;5123;52.556;13.384;2022-12-16T12:55:20;45.30;;;28.43;;
10162;SDS011;5123;52.556;13.384;2022-12-16T12:58:12;45.60;;;27.50;;
10162;SDS011;5123;52.556;13.384;2022-12-16T13:01:03;45.83;;;27.13;;
10162;SDS011;5123;52.556;13.384;2022-12-16T13:03:56;42.87;;;27.57;;
10162;SDS011;5123;52.556;13.384;2022-12-16T13:06:49;44.00;;;28.50;;
10162;SDS011;5123;52.556;13.384;2022-12-16T13:09:41;50.97;;;32.60;;
10162;SDS011;5123;52.556;13.384;2022-12-16T13:12:32;49.03;;;29.87;;
10162;SDS011;5123;52.556;13.384;2022-12-16T13:15:32;43.00;;;29.23;;
10162;SDS011;5123;52.556;13.384;2022-12-16T13:18:23;46.70;;;27.97;;
10162;SDS011;5123;52.556;13.384;2022-12-16T13:24:31;41.13;;;27.73;;
10162;SDS011;5123;52.556;13.384;2022-12-16T13:27:22;42.30;;;27.33;;
10162;SDS011;5123;52.556;13.384;2022-12-16T13:30:18;38.47;;;22.60;;
10162;SDS011;5123;52.556;13.384;2022-12-16T13:33:22;39.07;;;23.60;;
10162;SDS011;5123;52.556;13.384;2022-12-16T13:36:14;38.30;;;25.93;;
10162;SDS011;5123;52.556;13.384;2022-12-16T13:39:22;45.33;;;28.10;;
10162;SDS011;5123;52.556;13.384;2022-12-16T13:45:30;46.97;;;29.20;;
10162;SDS011;5123;52.556;13.384;2022-12-16T13:48:26;48.87;;;28.67;;
10162;SDS011;5123;52.556;13.384;2022-12-16T13:54:28;45.77;;;28.87;;
10162;SDS011;5123;52.556;13.384;2022-12-16T13:57:22;50.37;;;29.87;;
10162;SDS011;5123;52.556;13.384;2022-12-16T14:00:15;45.10;;;30.57;;
10162;SDS011;5123;52.556;13.384;2022-12-16T14:03:10;50.43;;;29.90;;
10162;SDS011;5123;52.556;13.384;2022-12-16T14:06:03;42.00;;;27.73;;
10162;SDS011;5123;52.556;13.384;2022-12-16T14:08:54;47.83;;;29.37;;
10162;SDS011;5123;52.556;13.384;2022-12-16T14:11:46;45.27;;;28.07;;
10162;SDS011;5123;52.556;13.384;2022-12-16T14:14:43;42.90;;;28.93;;
10162;SDS011;5123;52.556;13.384;2022-12-16T14:17:36;45.10;;;28.23;;
10162;SDS011;5123;52.556;13.384;2022-12-16T14:20:33;90.60;;;47.87;;
10162;SDS011;5123;52.556;13.384;2022-12-16T14:23:27;52.40;;;32.77;;
10162;SDS011;5123;52.556;13.384;2022-12-16T14:26:28;46.83;;;29.67;;
10162;SDS011;5123;52.556;13.384;2022-12-16T14:29:20;48.10;;;28.47;;
10162;SDS011;5123;52.556;13.384;2022-12-16T14:32:23;46.63;;;29.13;;
10162;SDS011;5123;52.556;13.384;2022-12-16T14:35:16;48.97;;;28.97;;
10162;SDS011;5123;52.556;13.384;2022-12-16T14:38:24;41.03;;;26.73;;
10162;SDS011;5123;52.556;13.384;2022-12-16T14:41:19;46.60;;;29.47;;
10162;SDS011;5123;52.556;13.384;2022-12-16T14:44:15;41.40;;;26.07;;
10162;SDS011;5123;52.556;13.384;2022-12-16T14:47:11;50.93;;;29.30;;
10162;SDS011;5123;52.556;13.384;2022-12-16T14:50:14;49.03;;;28.60;;
10162;SDS011;5123;52.556;13.384;2022-12-16T14:53:14;44.03;;;26.73;;
10162;SDS011;5123;52.556;13.384;2022-12-16T14:56:17;42.73;;;26.40;;
10162;SDS011;5123;52.556;13.384;2022-12-16T14:59:10;42.90;;;27.43;;
10162;SDS011;5123;52.556;13.384;2022-12-16T15:02:07;45.33;;;28.00;;
10162;SDS011;5123;52.556;13.384;2022-12-16T15:05:01;45.07;;;26.97;;
10162;SDS011;5123;52.556;13.384;2022-12-16T15:07:51;46.70;;;28.07;;
10162;SDS011;5123;52.556;13.384;2022-12-16T15:10:45;46.90;;;28.43;;
10162;SDS011;5123;52.556;13.384;2022-12-16T15:13:37;39.43;;;26.27;;
10162;SDS011;5123;52.556;13.384;2022-12-16T15:16:34;47.20;;;29.03;;
10162;SDS011;5123;52.556;13.384;2022-12-16T15:19:27;45.33;;;26.50;;
10162;SDS011;5123;52.556;13.384;2022-12-16T15:22:19;45.90;;;27.07;;
10162;SDS011;5123;52.556;13.384;2022-12-16T15:25:17;42.80;;;25.90;;
10162;SDS011;5123;52.556;13.384;2022-12-16T15:28:21;45.33;;;26.87;;
10162;SDS011;5123;52.556;13.384;2022-12-16T15:31:21;46.93;;;29.03;;
10162;SDS011;5123;52.556;13.384;2022-12-16T15:34:16;42.90;;;27.70;;
10162;SDS011;5123;52.556;13.384;2022-12-16T15:37:12;46.17;;;28.13;;
10162;SDS011;5123;52.556;13.384;2022-12-16T15:40:03;46.37;;;27.43;;
10162;SDS011;5123;52.556;13.384;2022-12-16T15:42:54;45.27;;;28.60;;
10162;SDS011;5123;52.556;13.384;2022-12-16T15:45:46;46.10;;;29.97;;
10162;SDS011;5123;52.556;13.384;2022-12-16T15:48:38;48.03;;;28.57;;
10162;SDS011;5123;52.556;13.384;2022-12-16T15:51:30;50.70;;;30.37;;
10162;SDS011;5123;52.556;13.384;2022-12-16T15:54:20;48.03;;;29.30;;
10162;SDS011;5123;52.556;13.384;2022-12-16T15:57:22;45.90;;;29.07;;
10162;SDS011;5123;52.556;13.384;2022-12-16T16:00:20;48.93;;;29.90;;
10162;SDS011;5123;52.556;13.384;2022-12-16T16:03:17;52.37;;;31.60;;
10162;SDS011;5123;52.556;13.384;2022-12-16T16:06:14;46.73;;;29.93;;
10162;SDS011;5123;52.556;13.384;2022-12-16T16:09:11;49.10;;;30.40;;
10162;SDS011;5123;52.556;13.384;2022-12-16T16:12:07;47.10;;;30.20;;
10162;SDS011;5123;52.556;13.384;2022-12-16T16:14:58;50.60;;;31.03;;
10162;SDS011;5123;52.556;13.384;2022-12-16T16:17:53;45.70;;;30.00;;
10162;SDS011;5123;52.556;13.384;2022-12-16T16:20:43;46.87;;;28.50;;
10162;SDS011;5123;52.556;13.384;2022-12-16T16:23:35;46.50;;;29.57;;
10162;SDS011;5123;52.556;13.384;2022-12-16T16:26:26;47.33;;;30.47;;
10162;SDS011;5123;52.556;13.384;2022-12-16T16:29:17;50.57;;;31.30;;
10162;SDS011;5123;52.556;13.384;2022-12-16T16:32:19;51.97;;;30.77;;
10162;SDS011;5123;52.556;13.384;2022-12-16T16:35:13;48.93;;;31.23;;
10162;SDS011;5123;52.556;13.384;2022-12-16T16:38:04;56.20;;;34.10;;
10162;SDS011;5123;52.556;13.384;2022-12-16T16:40:56;51.67;;;31.03;;
10162;SDS011;5123;52.556;13.384;2022-12-16T16:43:47;54.23;;;31.77;;